sensor_id;sensor_type;location;lat;lon;timestamp;P1;durP1;ratioP1;P2;durP2;ratioP2
49556;SDS011;35462;45.048;7.666;2023-04-06T00:05:43;15.57;;;8.02;;
49556;SDS011;35462;45.048;7.666;2023-04-06T00:20:47;10.80;;;8.52;;
49556;SDS011;35462;45.048;7.666;2023-04-06T00:35:55;18.88;;;9.40;;
49556;SDS011;35462;45.048;7.666;2023-04-06T00:51:01;18.40;;;12.38;;
49556;SDS011;35462;45.048;7.666;2023-04-06T01:06:05;21.70;;;14.98;;
49556;SDS011;35462;45.048;7.666;2023-04-06T01:21:14;17.00;;;11.50;;
49556;SDS011;35462;45.048;7.666;2023-04-06T01:36:31;17.15;;;10.75;;
49556;SDS011;35462;45.048;7.666;2023-04-06T01:51:49;13.90;;;9.35;;
49556;SDS011;35462;45.048;7.666;2023-04-06T02:06:54;13.68;;;10.05;;
49556;SDS011;35462;45.048;7.666;2023-04-06T02:22:02;15.02;;;9.90;;
49556;SDS011;35462;45.048;7.666;2023-04-06T02:37:08;14.43;;;9.52;;
49556;SDS011;35462;45.048;7.666;2023-04-06T02:52:13;15.05;;;10.60;;
49556;SDS011;35462;45.048;7.666;2023-04-06T03:07:18;13.05;;;8.52;;
49556;SDS011;35462;45.048;7.666;2023-04-06T03:22:22;11.88;;;7.55;;
49556;SDS011;35462;45.048;7.666;2023-04-06T03:37:26;16.92;;;8.75;;
49556;SDS011;35462;45.048;7.666;2023-04-06T04:07:39;17.10;;;10.57;;
49556;SDS011;35462;45.048;7.666;2023-04-06T04:22:46;14.15;;;9.15;;
49556;SDS011;35462;45.048;7.666;2023-04-06T04:37:50;19.45;;;10.38;;
49556;SDS011;35462;45.048;7.666;2023-04-06T04:52:55;12.70;;;8.48;;
49556;SDS011;35462;45.048;7.666;2023-04-06T05:08:02;15.43;;;9.18;;
49556;SDS011;35462;45.048;7.666;2023-04-06T05:23:17;16.58;;;9.57;;
49556;SDS011;35462;45.048;7.666;2023-04-06T05:38:21;16.38;;;9.23;;
49556;SDS011;35462;45.048;7.666;2023-04-06T05:53:26;15.18;;;8.55;;
49556;SDS011;35462;45.048;7.666;2023-04-06T06:08:35;17.55;;;9.70;;
49556;SDS011;35462;45.048;7.666;2023-04-06T06:23:43;15.57;;;8.98;;
49556;SDS011;35462;45.048;7.666;2023-04-06T06:38:51;17.10;;;8.70;;
49556;SDS011;35462;45.048;7.666;2023-04-06T06:53:59;12.32;;;8.75;;
49556;SDS011;35462;45.048;7.666;2023-04-06T07:09:03;16.90;;;9.10;;
49556;SDS011;35462;45.048;7.666;2023-04-06T07:24:07;12.95;;;8.63;;
49556;SDS011;35462;45.048;7.666;2023-04-06T07:39:11;11.40;;;5.80;;
49556;SDS011;35462;45.048;7.666;2023-04-06T07:54:16;10.80;;;7.13;;
49556;SDS011;35462;45.048;7.666;2023-04-06T08:09:23;8.07;;;5.70;;
49556;SDS011;35462;45.048;7.666;2023-04-06T08:24:27;11.95;;;5.60;;
49556;SDS011;35462;45.048;7.666;2023-04-06T08:39:31;10.55;;;5.32;;
49556;SDS011;35462;45.048;7.666;2023-04-06T08:54:38;9.32;;;5.57;;
49556;SDS011;35462;45.048;7.666;2023-04-06T09:09:43;8.80;;;5.57;;
49556;SDS011;35462;45.048;7.666;2023-04-06T09:24:51;13.53;;;7.60;;
49556;SDS011;35462;45.048;7.666;2023-04-06T09:55:06;13.98;;;8.63;;
49556;SDS011;35462;45.048;7.666;2023-04-06T10:10:11;17.55;;;8.77;;
49556;SDS011;35462;45.048;7.666;2023-04-06T10:25:26;13.00;;;9.30;;
49556;SDS011;35462;45.048;7.666;2023-04-06T10:40:31;12.93;;;9.50;;
49556;SDS011;35462;45.048;7.666;2023-04-06T10:55:38;14.45;;;9.43;;
49556;SDS011;35462;45.048;7.666;2023-04-06T11:10:44;13.95;;;8.50;;
49556;SDS011;35462;45.048;7.666;2023-04-06T11:25:50;13.10;;;9.00;;
49556;SDS011;35462;45.048;7.666;2023-04-06T11:40:55;12.75;;;8.55;;
49556;SDS011;35462;45.048;7.666;2023-04-06T11:55:59;15.35;;;9.10;;
49556;SDS011;35462;45.048;7.666;2023-04-06T12:11:03;13.88;;;8.73;;
49556;SDS011;35462;45.048;7.666;2023-04-06T12:26:07;12.85;;;8.75;;
49556;SDS011;35462;45.048;7.666;2023-04-06T12:41:11;14.90;;;9.25;;
49556;SDS011;35462;45.048;7.666;2023-04-06T12:56:16;16.58;;;10.65;;
49556;SDS011;35462;45.048;7.666;2023-04-06T13:11:21;15.52;;;9.38;;
49556;SDS011;35462;45.048;7.666;2023-04-06T13:26:28;16.50;;;10.75;;
49556;SDS011;35462;45.048;7.666;2023-04-06T13:41:32;16.23;;;9.63;;
49556;SDS011;35462;45.048;7.666;2023-04-06T13:56:36;16.63;;;10.13;;
49556;SDS011;35462;45.048;7.666;2023-04-06T14:11:42;14.68;;;10.48;;
49556;SDS011;35462;45.048;7.666;2023-04-06T14:26:52;12.70;;;10.15;;
49556;SDS011;35462;45.048;7.666;2023-04-06T14:42:01;17.15;;;9.07;;
49556;SDS011;35462;45.048;7.666;2023-04-06T14:57:05;16.75;;;10.55;;
49556;SDS011;35462;45.048;7.666;2023-04-06T15:12:09;16.20;;;9.50;;
49556;SDS011;35462;45.048;7.666;2023-04-06T15:27:13;15.00;;;11.15;;
49556;SDS011;35462;45.048;7.666;2023-04-06T15:42:17;16.27;;;8.98;;
49556;SDS011;35462;45.048;7.666;2023-04-06T15:57:21;14.15;;;9.02;;
49556;SDS011;35462;45.048;7.666;2023-04-06T16:12:25;15.50;;;8.73;;
49556;SDS011;35462;45.048;7.666;2023-04-06T16:27:29;12.63;;;8.38;;
49556;SDS011;35462;45.048;7.666;2023-04-06T16:42:33;13.60;;;7.95;;
49556;SDS011;35462;45.048;7.666;2023-04-06T16:57:37;14.60;;;7.50;;
49556;SDS011;35462;45.048;7.666;2023-04-06T17:12:41;13.18;;;7.93;;
49556;SDS011;35462;45.048;7.666;2023-04-06T17:27:45;11.25;;;7.05;;
49556;SDS011;35462;45.048;7.666;2023-04-06T17:42:49;12.98;;;7.72;;
49556;SDS011;35462;45.048;7.666;2023-04-06T17:57:53;18.77;;;9.00;;
49556;SDS011;35462;45.048;7.666;2023-04-06T18:12:57;14.52;;;8.82;;
49556;SDS011;35462;45.048;7.666;2023-04-06T18:28:03;17.42;;;10.10;;
49556;SDS011;35462;45.048;7.666;2023-04-06T18:43:08;16.52;;;9.52;;
49556;SDS011;35462;45.048;7.666;2023-04-06T18:58:13;16.27;;;9.80;;
49556;SDS011;35462;45.048;7.666;2023-04-06T19:13:17;18.95;;;11.13;;
49556;SDS011;35462;45.048;7.666;2023-04-06T19:28:21;23.88;;;11.82;;
49556;SDS011;35462;45.048;7.666;2023-04-06T19:43:25;20.70;;;12.43;;
49556;SDS011;35462;45.048;7.666;2023-04-06T19:58:29;18.75;;;11.40;;
49556;SDS011;35462;45.048;7.666;2023-04-06T20:13:34;21.35;;;11.80;;
49556;SDS011;35462;45.048;7.666;2023-04-06T20:28:39;20.73;;;11.32;;
49556;SDS011;35462;45.048;7.666;2023-04-06T20:43:43;15.35;;;10.43;;
49556;SDS011;35462;45.048;7.666;2023-04-06T20:58:47;16.00;;;10.93;;
49556;SDS011;35462;45.048;7.666;2023-04-06T21:13:51;19.80;;;13.05;;
49556;SDS011;35462;45.048;7.666;2023-04-06T21:28:55;20.73;;;12.77;;
49556;SDS011;35462;45.048;7.666;2023-04-06T21:43:59;20.70;;;12.45;;
49556;SDS011;35462;45.048;7.666;2023-04-06T21:59:03;18.25;;;11.98;;
49556;SDS011;35462;45.048;7.666;2023-04-06T22:14:08;20.08;;;12.13;;
49556;SDS011;35462;45.048;7.666;2023-04-06T22:29:11;19.00;;;12.27;;
49556;SDS011;35462;45.048;7.666;2023-04-06T22:44:15;20.50;;;12.02;;
49556;SDS011;35462;45.048;7.666;2023-04-06T22:59:19;21.88;;;12.52;;
49556;SDS011;35462;45.048;7.666;2023-04-06T23:14:23;19.83;;;12.88;;
49556;SDS011;35462;45.048;7.666;2023-04-06T23:29:27;20.17;;;12.30;;
49556;SDS011;35462;45.048;7.666;2023-04-06T23:44:31;23.58;;;14.40;;
49556;SDS011;35462;45.048;7.666;2023-04-06T23:59:35;31.77;;;16.02;;
